Time;durP1;ratioP1;P1;durP2;ratioP2;P2;SDS_P1;SDS_P2;PMS_P1;PMS_P2;Temp;Humidity;BMP_temperature;BMP_pressure;BME280_temperature;BME280_humidity;BME280_pressure;Samples;Min_cycle;Max_cycle;Signal;HPM_P1;HPM_P2
2022/05/15 00:02:54;;;;;;;15.72;7.67;;;;;;;13.13;57.40;100621.92;2219222;80;30368;-64
2022/05/15 00:06:02;;;;;;;18.12;8.70;;;;;;;13.13;57.54;100624.61;2219626;80;27786;-64
2022/05/15 00:09:04;;;;;;;19.20;8.30;;;;;;;13.13;57.69;100628.65;2219369;79;28655;-64
2022/05/15 00:12:08;;;;;;;24.85;9.75;;;;;;;13.14;57.59;100633.56;2219531;80;31859;-64
2022/05/15 00:15:11;;;;;;;20.00;8.40;;;;;;;13.15;57.81;100639.34;2219906;78;33195;-64
2022/05/15 00:18:14;;;;;;;15.18;8.78;;;;;;;13.15;57.79;100630.78;2259553;78;28505;-65
2022/05/15 00:21:17;;;;;;;20.95;9.20;;;;;;;13.15;57.91;100640.20;2259900;78;27613;-64
2022/05/15 00:24:19;;;;;;;14.28;9.13;;;;;;;13.14;58.00;100640.30;2259700;78;29515;-64
2022/05/15 00:27:22;;;;;;;24.18;9.45;;;;;;;13.14;58.04;100642.98;2259489;78;32050;-66
2022/05/15 00:30:25;;;;;;;19.50;9.43;;;;;;;13.13;58.16;100636.72;2259507;78;34336;-64
2022/05/15 00:33:27;;;;;;;16.07;8.98;;;;;;;13.13;58.29;100643.94;2259587;78;29762;-64
2022/05/15 00:36:30;;;;;;;19.20;9.73;;;;;;;13.14;58.32;100645.67;2259754;78;27613;-63
2022/05/15 00:39:32;;;;;;;18.35;9.85;;;;;;;13.13;58.45;100648.83;2260041;78;28640;-64
2022/05/15 00:42:35;;;;;;;20.35;9.53;;;;;;;13.15;58.43;100651.45;2108152;77;32245;-74
2022/05/15 00:45:38;;;;;;;20.20;10.13;;;;;;;13.15;58.72;100651.45;2078520;85;33898;-72
2022/05/15 00:48:41;;;;;;;25.65;11.08;;;;;;;13.16;58.56;100650.00;2079024;85;29031;-73
2022/05/15 00:51:54;;;;;;;23.47;10.75;;;;;;;13.16;58.53;100648.66;2078726;85;27723;-70
2022/05/15 00:55:02;;;;;;;21.48;10.55;;;;;;;13.15;58.73;100659.03;2078142;85;28652;-71
2022/05/15 00:58:15;;;;;;;19.37;10.70;;;;;;;13.15;58.71;100650.95;2078980;84;31109;-68
2022/05/15 01:01:19;;;;;;;25.40;11.45;;;;;;;13.16;58.77;100658.53;2079046;85;33000;-73
2022/05/15 01:04:22;;;;;;;19.35;10.23;;;;;;;13.15;59.02;100650.11;2078929;85;29040;-70
2022/05/15 01:07:25;;;;;;;22.55;11.60;;;;;;;13.14;58.96;100655.09;2078779;85;27818;-66
2022/05/15 01:10:28;;;;;;;20.95;11.22;;;;;;;13.12;59.09;100656.50;2078895;85;28276;-67
2022/05/15 01:13:34;;;;;;;23.60;10.80;;;;;;;13.10;59.11;100654.37;2078868;85;31855;-72
2022/05/15 01:16:37;;;;;;;19.65;9.43;;;;;;;13.09;59.21;100651.77;2079014;85;32964;-70
2022/05/15 01:19:42;;;;;;;22.67;10.70;;;;;;;13.07;59.19;100655.91;2078939;85;29031;-73
2022/05/15 01:22:45;;;;;;;19.15;10.38;;;;;;;13.04;59.23;100655.58;2078666;85;27759;-72
2022/05/15 01:25:49;;;;;;;20.50;11.55;;;;;;;13.02;59.27;100657.97;2078612;85;29899;-71
2022/05/15 01:28:51;;;;;;;23.47;10.70;;;;;;;12.99;59.37;100658.13;2078942;85;30509;-69
2022/05/15 01:31:54;;;;;;;19.05;10.28;;;;;;;12.95;59.33;100658.77;2078546;85;34330;-73
2022/05/15 01:34:56;;;;;;;18.98;10.15;;;;;;;12.92;59.41;100659.79;2078865;85;29029;-69
2022/05/15 01:37:59;;;;;;;19.05;9.65;;;;;;;12.89;59.38;100661.33;2079009;85;27775;-72
2022/05/15 01:41:02;;;;;;;16.95;8.10;;;;;;;12.85;59.46;100662.43;2078791;84;28690;-71
2022/05/15 01:44:04;;;;;;;15.18;8.53;;;;;;;12.84;59.41;100667.87;2078871;85;31056;-73
2022/05/15 01:47:08;;;;;;;19.37;8.45;;;;;;;12.80;59.44;100666.32;2078514;85;34251;-73
2022/05/15 01:50:12;;;;;;;15.53;9.10;;;;;;;12.78;59.70;100665.53;2079095;85;29230;-73
2022/05/15 01:53:14;;;;;;;16.50;8.65;;;;;;;12.73;59.58;100662.59;2079036;85;27770;-73
2022/05/15 01:56:16;;;;;;;18.23;8.78;;;;;;;12.69;59.51;100665.54;2078858;85;27831;-73
2022/05/15 01:59:19;;;;;;;18.35;8.50;;;;;;;12.63;59.47;100662.70;2078837;85;31914;-73
2022/05/15 02:02:21;;;;;;;15.13;7.72;;;;;;;12.58;59.44;100660.72;2078772;85;33370;-71
2022/05/15 02:05:24;;;;;;;20.25;7.90;;;;;;;12.53;59.48;100663.66;2078535;85;30211;-71
2022/05/15 02:08:30;;;;;;;14.53;7.70;;;;;;;12.47;59.62;100669.34;2078580;85;27635;-72
2022/05/15 02:11:32;;;;;;;18.65;7.17;;;;;;;12.41;59.59;100661.13;2049290;85;28678;-72
2022/05/15 02:14:35;;;;;;;16.50;8.15;;;;;;;12.35;59.79;100666.80;2078973;85;31701;-72
2022/05/15 02:17:37;;;;;;;12.55;6.90;;;;;;;12.28;59.80;100660.87;2078610;85;32984;-76
2022/05/15 02:20:39;;;;;;;15.50;7.72;;;;;;;12.22;60.00;100670.61;2078321;85;29916;-73
2022/05/15 02:23:41;;;;;;;19.95;7.50;;;;;;;12.17;59.95;100665.94;2078882;85;27699;-72
2022/05/15 02:26:43;;;;;;;17.92;7.92;;;;;;;12.10;59.92;100667.17;2078506;85;29514;-72
2022/05/15 02:29:45;;;;;;;19.20;8.33;;;;;;;12.03;60.06;100674.67;2078717;85;31186;-71
2022/05/15 02:32:48;;;;;;;15.38;7.62;;;;;;;11.96;60.35;100667.36;2078873;85;32953;-71
2022/05/15 02:35:49;;;;;;;12.88;7.12;;;;;;;11.90;60.40;100673.06;2078775;85;29820;-71
2022/05/15 02:38:51;;;;;;;16.77;8.80;;;;;;;11.84;60.41;100670.66;2079481;85;27675;-73
2022/05/15 02:41:54;;;;;;;16.25;7.87;;;;;;;11.79;60.39;100675.38;2077721;84;29281;-75
2022/05/15 02:44:56;;;;;;;17.50;8.58;;;;;;;11.74;60.53;100676.09;2073839;85;31554;-75
2022/05/15 02:47:57;;;;;;;20.35;8.85;;;;;;;11.70;60.68;100684.74;2102208;84;33084;-74
2022/05/15 02:51:05;;;;;;;13.40;7.70;;;;;;;11.64;60.82;100687.73;2102112;84;29040;-72
2022/05/15 02:54:07;;;;;;;18.77;7.80;;;;;;;11.61;60.81;100695.45;2106337;84;27690;-72
2022/05/15 02:57:09;;;;;;;24.45;9.33;;;;;;;11.57;60.95;100700.59;2102340;84;28897;-69
2022/05/15 03:00:14;;;;;;;16.65;8.73;;;;;;;11.54;61.19;100698.04;2052025;84;31423;-73
2022/05/15 03:03:16;;;;;;;19.55;8.53;;;;;;;11.52;61.20;100699.44;2078138;84;34034;-72
2022/05/15 03:06:20;;;;;;;19.75;8.55;;;;;;;11.49;61.20;100696.92;2108162;84;29688;-72
2022/05/15 03:09:22;;;;;;;14.18;8.28;;;;;;;11.48;61.59;100699.66;2108908;84;27557;-70
2022/05/15 03:12:24;;;;;;;18.73;9.35;;;;;;;11.46;61.51;100702.42;2107147;82;28643;-73
2022/05/15 03:15:26;;;;;;;20.12;9.40;;;;;;;11.45;61.72;100703.37;2102152;84;32157;-73
2022/05/15 03:18:28;;;;;;;20.23;9.20;;;;;;;11.48;62.02;100705.91;2102405;84;33506;-72
2022/05/15 03:21:30;;;;;;;24.75;9.28;;;;;;;11.51;62.15;100705.74;2101794;84;29866;-73
2022/05/15 03:24:31;;;;;;;17.17;9.10;;;;;;;11.55;62.24;100711.37;2108170;84;27686;-72
2022/05/15 03:27:36;;;;;;;18.40;8.30;;;;;;;11.62;62.52;100711.95;2108596;84;28687;-73
2022/05/15 03:30:43;;;;;;;24.85;9.70;;;;;;;11.69;62.43;100716.55;2108587;83;31045;-71
2022/05/15 03:33:46;;;;;;;20.50;9.23;;;;;;;11.77;62.48;100716.18;2104135;84;33492;-72
2022/05/15 03:36:51;;;;;;;16.40;9.23;;;;;;;11.84;62.60;100717.16;2102122;84;30501;-72
2022/05/15 03:39:54;;;;;;;;;;;;;;;11.90;62.51;100720.04;2104734;84;28233;-74
2022/05/15 03:42:56;;;;;;;17.17;8.08;;;;;;;12.04;62.81;100734.15;2094382;84;28829;-73
2022/05/15 03:45:58;;;;;;;14.85;8.65;;;;;;;12.13;62.63;100734.17;2077190;85;32242;-72
2022/05/15 03:48:59;;;;;;;16.87;8.38;;;;;;;12.25;62.67;100738.08;2093475;84;34414;-73
2022/05/15 03:52:03;;;;;;;15.58;8.60;;;;;;;12.40;62.69;100733.77;2093001;85;29428;-73
2022/05/15 03:55:06;;;;;;;20.57;9.28;;;;;;;12.55;62.57;100735.67;2076001;85;27717;-73
2022/05/15 03:58:09;;;;;;;15.18;8.38;;;;;;;12.70;62.50;100731.80;2075824;85;28833;-70
2022/05/15 04:01:10;;;;;;;15.65;8.48;;;;;;;12.85;62.35;100736.38;2076061;85;31051;-69
2022/05/15 04:04:12;;;;;;;18.77;9.23;;;;;;;13.00;62.15;100733.33;2089603;84;33937;-69
2022/05/15 04:07:14;;;;;;;17.95;8.85;;;;;;;13.14;61.96;100734.45;2093916;85;30167;-66
2022/05/15 04:10:21;;;;;;;22.75;12.82;;;;;;;13.27;61.83;100733.29;2069929;85;27831;-67
2022/05/15 04:13:23;;;;;;;35.88;19.17;;;;;;;13.40;61.63;100739.80;2085475;84;29290;-65
2022/05/15 04:16:28;;;;;;;;;;;;;;;13.50;61.48;100741.48;2078111;85;31220;-71
2022/05/15 04:19:30;;;;;;;33.63;16.25;;;;;;;13.59;61.23;100743.69;2075773;85;33862;-68
2022/05/15 04:22:31;;;;;;;19.40;10.48;;;;;;;13.68;61.26;100740.97;2089191;85;30183;-70
2022/05/15 04:25:34;;;;;;;16.50;8.00;;;;;;;13.77;60.96;100747.66;2094100;85;27611;-70
2022/05/15 04:28:36;;;;;;;17.57;8.70;;;;;;;13.82;60.61;100749.59;2093843;84;29342;-70
2022/05/15 04:31:38;;;;;;;14.85;7.70;;;;;;;13.89;60.68;100751.50;2086495;85;32038;-70
2022/05/15 04:34:40;;;;;;;18.17;6.92;;;;;;;13.98;60.52;100753.16;2075756;85;33585;-66
2022/05/15 04:37:42;;;;;;;13.03;7.08;;;;;;;14.11;60.46;100758.73;2075759;85;30256;-72
2022/05/15 04:40:45;;;;;;;12.80;7.20;;;;;;;14.34;60.27;100763.28;2075981;85;27708;-74
2022/05/15 04:43:47;;;;;;;12.85;6.62;;;;;;;15.14;60.51;100761.70;2103956;83;28810;-67
2022/05/15 04:46:49;;;;;;;11.00;5.58;;;;;;;16.33;59.84;100764.11;2108729;84;31047;-67
2022/05/15 04:49:51;;;;;;;13.20;5.67;;;;;;;17.58;58.79;100759.22;2108701;84;33565;-67
2022/05/15 04:52:53;;;;;;;11.65;5.42;;;;;;;18.77;57.47;100764.05;2103272;84;29006;-67
2022/05/15 04:55:55;;;;;;;16.77;6.78;;;;;;;19.94;55.82;100757.66;2102172;84;27722;-68
2022/05/15 04:58:57;;;;;;;11.30;5.17;;;;;;;20.99;54.19;100758.91;2102160;84;28659;-70
2022/05/15 05:01:59;;;;;;;8.90;5.03;;;;;;;21.86;52.39;100764.47;2105423;84;30344;-69
2022/05/15 05:05:01;;;;;;;15.65;5.22;;;;;;;22.61;50.87;100755.37;2108539;84;33763;-69
2022/05/15 05:08:05;;;;;;;8.55;4.17;;;;;;;23.32;49.29;100762.84;2108342;84;29733;-70
2022/05/15 05:11:06;;;;;;;12.82;4.30;;;;;;;23.83;48.12;100763.88;2107444;84;36798;-68
2022/05/15 05:14:09;;;;;;;13.75;5.08;;;;;;;24.28;46.92;100763.58;2102370;84;28678;-69
2022/05/15 05:17:11;;;;;;;9.85;4.80;;;;;;;24.64;45.42;100765.46;2101891;84;33152;-68
2022/05/15 05:20:14;;;;;;;8.75;3.80;;;;;;;24.88;44.53;100771.70;2102203;83;33782;-66
2022/05/15 05:23:16;;;;;;;9.45;4.12;;;;;;;25.03;43.38;100773.38;2105757;84;28776;-68
2022/05/15 05:26:18;;;;;;;14.03;5.20;;;;;;;25.09;41.99;100777.34;2102341;84;27979;-69
2022/05/15 05:29:20;;;;;;;11.08;4.50;;;;;;;25.22;41.60;100783.27;2101924;84;29909;-69
2022/05/15 05:32:22;;;;;;;8.30;4.30;;;;;;;25.20;40.78;100785.30;2101894;84;32242;-69
2022/05/15 05:35:26;;;;;;;8.13;4.53;;;;;;;25.08;40.38;100792.92;2101603;84;33027;-69
2022/05/15 05:38:28;;;;;;;8.88;3.87;;;;;;;24.96;39.64;100791.45;2102420;84;29978;-69
2022/05/15 05:41:30;;;;;;;9.23;4.08;;;;;;;24.93;39.06;100791.28;2101934;84;27732;-69
2022/05/15 05:44:32;;;;;;;9.70;4.65;;;;;;;24.98;39.27;100792.16;2106504;84;28638;-69
2022/05/15 05:47:35;;;;;;;11.08;4.20;;;;;;;24.92;38.47;100795.53;2108404;84;32315;-70
2022/05/15 05:50:38;;;;;;;7.47;3.90;;;;;;;24.78;38.03;100794.23;2108983;84;32957;-70
2022/05/15 05:53:40;;;;;;;10.80;3.77;;;;;;;24.54;37.77;100794.30;2106285;84;29258;-70
2022/05/15 05:56:42;;;;;;;7.95;3.50;;;;;;;24.12;37.80;100797.97;2102389;84;27628;-68
2022/05/15 05:59:44;;;;;;;9.65;3.92;;;;;;;24.19;37.81;100801.45;2102352;84;28640;-69
2022/05/15 06:02:47;;;;;;;9.83;3.85;;;;;;;24.53;37.56;100804.90;2102590;84;31468;-67
2022/05/15 06:05:50;;;;;;;7.85;3.87;;;;;;;25.02;37.45;100803.17;2108729;84;33430;-68
2022/05/15 06:08:52;;;;;;;10.00;3.95;;;;;;;25.52;36.81;100814.00;2108446;84;29099;-68
2022/05/15 06:11:54;;;;;;;11.68;3.83;;;;;;;25.87;36.44;100811.30;2108930;84;27699;-68
2022/05/15 06:14:56;;;;;;;5.42;3.12;;;;;;;26.28;35.68;100814.75;2103511;82;29939;-67
2022/05/15 06:18:00;;;;;;;8.78;2.47;;;;;;;26.53;35.13;100810.17;2101855;84;32329;-68
2022/05/15 06:21:02;;;;;;;9.07;3.20;;;;;;;26.97;34.62;100814.55;2102083;84;33163;-68
2022/05/15 06:24:04;;;;;;;8.75;3.40;;;;;;;27.28;33.49;100813.85;2105456;84;29020;-68
2022/05/15 06:27:06;;;;;;;5.83;2.95;;;;;;;27.48;33.60;100817.11;2108902;84;27532;-69
2022/05/15 06:30:12;;;;;;;6.75;3.17;;;;;;;27.95;33.38;100811.80;2108517;84;28235;-68
2022/05/15 06:33:14;;;;;;;8.70;2.85;;;;;;;28.45;32.90;100814.69;2107185;84;31006;-68
2022/05/15 06:36:16;;;;;;;8.03;2.87;;;;;;;28.91;31.96;100802.86;2102194;84;32937;-68
2022/05/15 06:39:18;;;;;;;7.87;2.37;;;;;;;29.12;30.97;100805.45;2102191;84;29043;-69
2022/05/15 06:42:20;;;;;;;6.30;2.45;;;;;;;29.14;29.53;100814.36;2102360;84;27666;-67
2022/05/15 06:45:23;;;;;;;6.37;3.02;;;;;;;29.18;30.03;100814.33;2092383;84;28647;-68
2022/05/15 06:48:25;;;;;;;5.78;2.90;;;;;;;29.39;29.79;100811.42;2076038;85;31304;-68
2022/05/15 06:51:27;;;;;;;6.80;2.87;;;;;;;29.40;29.34;100811.75;2094227;85;33039;-69
2022/05/15 06:54:36;;;;;;;9.05;2.72;;;;;;;29.43;28.90;100815.52;2076334;85;29119;-68
2022/05/15 06:57:40;;;;;;;5.10;2.12;;;;;;;29.45;29.04;100822.22;2076160;85;27686;-67
2022/05/15 07:00:42;;;;;;;5.67;2.40;;;;;;;29.52;28.95;100816.30;2075711;85;28748;-67
2022/05/15 07:03:45;;;;;;;6.62;2.62;;;;;;;29.58;28.31;100821.58;2076160;85;31041;-67
2022/05/15 07:06:47;;;;;;;10.35;3.25;;;;;;;29.54;28.61;100825.22;2093645;85;33836;-68
2022/05/15 07:09:49;;;;;;;7.03;3.47;;;;;;;29.80;28.54;100826.14;2077188;85;30081;-68
2022/05/15 07:12:54;;;;;;;5.67;2.50;;;;;;;30.01;27.98;100822.66;2093389;85;27732;-68
2022/05/15 07:15:56;;;;;;;7.08;2.95;;;;;;;30.04;27.76;100821.92;2076273;85;29664;-68
2022/05/15 07:18:58;;;;;;;7.17;2.92;;;;;;;29.92;27.66;100815.48;2076028;85;31086;-68
2022/05/15 07:21:59;;;;;;;6.03;2.95;;;;;;;30.04;27.69;100825.56;2075809;85;33196;-68
2022/05/15 07:25:01;;;;;;;7.87;2.60;;;;;;;30.04;26.87;100818.65;2076264;85;29062;-69
2022/05/15 07:28:04;;;;;;;5.65;2.90;;;;;;;29.97;27.29;100817.18;2094113;85;27683;-69
2022/05/15 07:31:05;;;;;;;5.97;2.70;;;;;;;30.09;26.98;100819.45;2077350;85;28648;-69
2022/05/15 07:34:07;;;;;;;7.87;2.50;;;;;;;30.25;27.18;100819.23;2092888;84;31821;-69
2022/05/15 07:37:11;;;;;;;6.55;2.77;;;;;;;30.12;26.56;100817.69;2093918;85;32929;-69
2022/05/15 07:40:13;;;;;;;4.25;2.10;;;;;;;30.08;26.54;100816.35;2094116;85;29815;-68
2022/05/15 07:43:16;;;;;;;6.42;2.37;;;;;;;30.01;26.65;100815.76;2093681;83;27668;-69
2022/05/15 07:46:18;;;;;;;3.95;2.25;;;;;;;29.95;26.05;100819.28;2043553;87;28865;-67
2022/05/15 07:49:20;;;;;;;9.10;2.33;;;;;;;29.77;25.98;100821.03;2109829;84;30887;-66
2022/05/15 07:52:22;;;;;;;6.03;2.40;;;;;;;29.69;26.13;100815.58;2109868;84;33003;-68
2022/05/15 07:55:24;;;;;;;5.35;2.25;;;;;;;29.82;25.99;100814.92;2109332;84;28186;-67
2022/05/15 07:58:26;;;;;;;5.03;2.27;;;;;;;29.67;25.79;100808.00;2072673;85;27840;-68
2022/05/15 08:01:30;;;;;;;5.83;1.98;;;;;;;29.71;25.88;100813.48;2067741;86;28822;-69
2022/05/15 08:08:00;;;;;;;4.80;2.00;;;;;;;29.74;25.95;100806.21;2070341;85;31866;-69
2022/05/15 08:11:00;;;;;;;5.65;2.45;;;;;;;29.57;25.66;100811.05;2110168;84;30090;-68
2022/05/15 08:14:03;;;;;;;5.78;2.30;;;;;;;28.96;25.79;100812.79;2109870;84;30027;-67
2022/05/15 08:17:05;;;;;;;7.45;2.40;;;;;;;28.84;26.01;100811.52;2110229;84;28724;-66
2022/05/15 08:23:34;;;;;;;5.78;3.08;;;;;;;28.62;26.16;100822.34;2109563;84;34104;-68
2022/05/15 08:26:37;;;;;;;6.87;3.15;;;;;;;28.47;26.13;100820.88;2072488;85;29083;-68
2022/05/15 08:29:40;;;;;;;6.78;2.70;;;;;;;28.28;26.42;100829.59;2068029;86;27728;-68
2022/05/15 08:32:42;;;;;;;6.00;1.95;;;;;;;28.29;26.44;100820.30;2088284;85;28652;-68
2022/05/15 08:35:44;;;;;;;7.50;2.10;;;;;;;28.36;26.43;100824.05;2057538;85;31859;-68
2022/05/15 08:38:46;;;;;;;5.72;1.98;;;;;;;28.31;26.29;100814.92;2109939;84;33755;-68
2022/05/15 08:42:06;;;;;;;6.92;2.62;;;;;;;28.17;26.55;100819.83;2085609;84;29145;-67
2022/05/15 08:45:13;;;;;;;6.00;1.82;;;;;;;27.85;26.67;100818.39;2088314;83;27810;-67
2022/05/15 08:48:16;;;;;;;3.70;1.60;;;;;;;27.88;26.96;100819.39;2108687;84;29476;-68
2022/05/15 08:51:18;;;;;;;7.50;2.20;;;;;;;27.98;27.02;100820.56;2108799;84;31124;-68
2022/05/15 08:54:21;;;;;;;5.87;2.20;;;;;;;27.84;26.74;100819.43;2108535;84;32956;-66
2022/05/15 08:57:47;;;;;;;6.10;2.10;;;;;;;27.66;26.81;100818.80;2109096;84;29192;-67
2022/05/15 09:00:52;;;;;;;5.28;2.30;;;;;;;27.59;26.63;100820.86;2096787;84;27805;-67
2022/05/15 09:03:55;;;;;;;8.95;2.47;;;;;;;27.44;26.44;100816.58;2107705;84;28687;-69
2022/05/15 09:07:11;;;;;;;5.05;1.90;;;;;;;27.26;26.62;100826.38;2108396;84;31837;-66
2022/05/15 09:10:19;;;;;;;4.67;2.05;;;;;;;27.21;26.94;100819.19;2108535;83;32955;-69
2022/05/15 09:13:40;;;;;;;8.55;1.90;;;;;;;27.11;26.80;100823.98;2108490;84;29950;-70
2022/05/15 09:17:15;;;;;;;8.68;2.08;;;;;;;27.02;26.87;100820.37;2108848;84;28250;-67
2022/05/15 09:20:37;;;;;;;5.00;1.85;;;;;;;26.68;26.42;100824.97;2109023;84;28637;-69
2022/05/15 09:23:54;;;;;;;7.55;2.12;;;;;;;25.79;26.69;100825.84;2104154;84;31889;-69
2022/05/15 09:26:59;;;;;;;5.85;1.70;;;;;;;25.61;27.69;100831.38;2102079;84;32963;-69
2022/05/15 09:30:09;;;;;;;5.30;1.87;;;;;;;25.68;27.86;100833.84;2098378;84;29039;-67
2022/05/15 09:33:37;;;;;;;3.45;1.60;;;;;;;25.83;28.17;100825.84;2105519;84;28167;-68
2022/05/15 09:36:44;;;;;;;4.50;1.92;;;;;;;26.12;28.02;100816.41;2108634;84;28638;-67
2022/05/15 09:39:51;;;;;;;6.78;2.02;;;;;;;26.39;28.20;100815.27;2108272;84;31113;-67
2022/05/15 09:46:19;;;;;;;4.47;1.75;;;;;;;26.39;27.61;100818.02;2077673;84;29879;-68
2022/05/15 09:49:24;;;;;;;5.75;1.42;;;;;;;26.21;27.67;100823.64;2076081;85;27696;-67
2022/05/15 09:52:43;;;;;;;5.83;2.20;;;;;;;25.87;27.59;100811.30;2080456;85;29702;-66
2022/05/15 09:56:13;;;;;;;6.72;1.70;;;;;;;25.47;28.10;100818.61;2094036;85;31686;-67
2022/05/15 09:59:15;;;;;;;3.87;1.67;;;;;;;25.13;28.15;100818.52;2086722;85;35085;-68
2022/05/15 10:02:22;;;;;;;4.35;1.65;;;;;;;24.93;28.49;100824.17;2090724;85;29803;-69
2022/05/15 10:05:28;;;;;;;4.22;1.90;;;;;;;24.84;28.39;100823.72;2076163;85;27712;-68
2022/05/15 10:08:32;;;;;;;3.45;1.70;;;;;;;24.50;28.32;100812.93;2076171;85;28654;-69
2022/05/15 10:11:37;;;;;;;6.05;1.75;;;;;;;24.21;28.39;100815.84;2112428;84;31022;-67
2022/05/15 10:14:44;;;;;;;3.77;1.42;;;;;;;23.86;29.03;100820.16;2077467;84;33567;-68
2022/05/15 10:17:53;;;;;;;6.05;2.10;;;;;;;23.77;28.96;100816.45;2077526;85;29100;-68
2022/05/15 10:20:55;;;;;;;4.05;1.62;;;;;;;23.76;28.81;100820.20;2103124;83;27720;-67
2022/05/15 10:24:03;;;;;;;2.77;1.40;;;;;;;23.73;28.53;100817.78;2090739;83;28600;-70
2022/05/15 10:27:16;;;;;;;1.70;1.30;;;;;;;23.62;28.58;100806.52;2075789;85;31082;-68
2022/05/15 10:30:23;;;;;;;3.80;1.40;;;;;;;23.54;29.03;100807.27;2112186;84;32976;-69
2022/05/15 10:33:25;;;;;;;6.12;1.77;;;;;;;23.56;29.25;100812.57;2093383;83;29898;-68
2022/05/15 10:37:03;;;;;;;5.85;1.30;;;;;;;23.49;28.92;100803.61;2094228;85;27789;-68
2022/05/15 10:40:34;;;;;;;3.50;1.80;;;;;;;23.43;29.10;100802.83;2076590;85;28835;-69
2022/05/15 10:44:03;;;;;;;5.60;1.47;;;;;;;23.33;28.81;100804.22;2083435;85;31851;-68
2022/05/15 10:47:13;;;;;;;2.67;1.20;;;;;;;23.22;29.04;100803.03;2076070;85;33037;-68
2022/05/15 10:50:29;;;;;;;2.50;1.95;;;;;;;23.24;29.07;100799.65;2111611;84;29019;-69
2022/05/15 10:57:58;;;;;;;2.67;1.17;;;;;;;23.28;29.06;100793.37;2112045;84;29970;-67
2022/05/15 11:01:24;;;;;;;3.50;1.25;;;;;;;23.38;29.43;100786.52;2112408;83;32187;-66
2022/05/15 11:04:43;;;;;;;4.22;1.30;;;;;;;23.49;28.69;100789.94;2076550;85;33727;-66
2022/05/15 11:08:05;;;;;;;3.12;1.30;;;;;;;23.44;28.78;100788.14;2093679;85;29464;-67
2022/05/15 11:11:31;;;;;;;2.90;1.10;;;;;;;23.47;28.94;100781.51;2076217;85;27716;-68
2022/05/15 11:14:44;;;;;;;3.37;1.25;;;;;;;23.45;28.69;100769.36;2078677;85;28675;-69
2022/05/15 11:18:03;;;;;;;6.05;1.50;;;;;;;23.36;28.74;100771.61;2075922;85;32024;-69
2022/05/15 11:21:31;;;;;;;2.27;1.00;;;;;;;23.13;28.99;100769.69;2067534;85;33057;-67
2022/05/15 11:24:42;;;;;;;4.85;1.67;;;;;;;22.84;29.07;100762.41;2091027;85;29628;-70
2022/05/15 11:27:56;;;;;;;3.85;1.20;;;;;;;22.61;29.39;100764.05;2094362;85;27678;-67
2022/05/15 11:31:09;;;;;;;;;;;;;;;22.50;29.50;100754.16;2096448;84;28626;-69
2022/05/15 11:34:11;;;;;;;4.03;1.30;;;;;;;22.54;29.28;100768.38;2080767;85;32222;-68
2022/05/15 11:37:58;;;;;;;1.45;1.00;;;;;;;22.55;29.40;100757.82;2075980;85;33271;-68
2022/05/15 11:41:00;;;;;;;3.08;1.35;;;;;;;22.45;28.83;100757.30;2075611;85;29916;-67
2022/05/15 11:44:24;;;;;;;5.80;1.12;;;;;;;22.32;29.27;100752.59;2035467;87;27775;-67
2022/05/15 11:47:33;;;;;;;2.00;1.15;;;;;;;22.28;29.15;100749.28;2047077;86;29332;-66
2022/05/15 11:50:45;;;;;;;5.00;1.50;;;;;;;22.15;28.90;100746.81;2059425;86;31872;-69
2022/05/15 11:53:51;;;;;;;2.85;1.15;;;;;;;22.09;29.09;100747.88;2069221;85;33054;-67
2022/05/15 11:56:55;;;;;;;5.25;1.10;;;;;;;22.03;28.72;100737.03;2076212;85;29760;-67
2022/05/15 11:59:59;;;;;;;1.98;1.07;;;;;;;21.91;29.11;100739.01;2076069;85;27770;-64
2022/05/15 12:03:01;;;;;;;3.80;0.95;;;;;;;21.96;29.37;100742.67;2075634;85;29547;-65
2022/05/15 12:06:07;;;;;;;2.15;1.20;;;;;;;22.00;29.68;100735.46;2094012;85;31824;-65
2022/05/15 12:09:24;;;;;;;2.85;1.45;;;;;;;22.04;29.59;100738.77;2074630;85;34026;-66
2022/05/15 12:12:31;;;;;;;1.27;1.05;;;;;;;22.09;29.70;100731.52;2092130;85;29304;-66
2022/05/15 12:15:46;;;;;;;3.67;1.17;;;;;;;22.10;29.42;100735.97;2075681;85;28076;-66
2022/05/15 12:18:57;;;;;;;2.75;1.52;;;;;;;22.05;28.91;100725.97;2076007;85;28773;-67
2022/05/15 12:22:06;;;;;;;7.35;3.60;;;;;;;21.90;29.04;100717.34;2111023;84;31818;-67
2022/05/15 12:25:14;;;;;;;8.73;3.55;;;;;;;21.85;28.83;100720.46;2088354;84;32574;-67
2022/05/15 12:28:53;;;;;;;6.17;1.62;;;;;;;21.73;28.50;100714.28;2112707;83;29839;-67
2022/05/15 12:31:56;;;;;;;4.78;1.55;;;;;;;21.63;28.87;100714.73;2076250;85;28254;-68
2022/05/15 12:34:59;;;;;;;2.00;1.20;;;;;;;21.55;28.82;100704.00;2076415;85;29665;-67
2022/05/15 12:38:20;;;;;;;3.25;1.00;;;;;;;21.51;29.26;100704.42;2094203;85;31893;-67
2022/05/15 12:41:35;;;;;;;6.75;1.87;;;;;;;21.50;29.12;100702.17;2077409;85;33609;-64
2022/05/15 12:44:38;;;;;;;2.25;1.10;;;;;;;21.50;29.34;100699.97;2080741;84;30179;-67
2022/05/15 12:47:41;;;;;;;2.80;1.20;;;;;;;21.46;29.24;100697.99;2078299;85;27692;-67
2022/05/15 12:51:07;;;;;;;1.50;0.80;;;;;;;21.35;29.30;100698.10;2077871;85;29919;-67
2022/05/15 12:54:29;;;;;;;1.47;0.98;;;;;;;21.27;29.28;100688.36;2078454;85;31087;-66
2022/05/15 12:57:32;;;;;;;5.40;1.60;;;;;;;21.20;29.39;100687.56;2108443;84;33769;-67
2022/05/15 13:00:41;;;;;;;2.35;0.93;;;;;;;21.20;29.22;100687.56;2080800;84;29823;-66
2022/05/15 13:03:53;;;;;;;2.42;0.78;;;;;;;21.27;29.56;100682.44;2105898;84;28125;-66
2022/05/15 13:06:58;;;;;;;1.45;0.98;;;;;;;21.32;29.63;100689.70;2102344;84;29437;-66
2022/05/15 13:10:08;;;;;;;1.10;0.80;;;;;;;21.34;29.22;100680.02;2101991;84;31923;-65
2022/05/15 13:13:35;;;;;;;3.70;1.32;;;;;;;21.33;29.30;100675.09;2103118;84;32974;-66
2022/05/15 13:16:41;;;;;;;3.08;1.30;;;;;;;21.31;29.36;100681.65;2108443;84;30237;-66
2022/05/15 13:19:49;;;;;;;2.95;1.17;;;;;;;21.33;29.56;100683.74;2081441;84;27892;-66
2022/05/15 13:22:54;;;;;;;7.53;1.70;;;;;;;21.36;29.69;100682.11;2105694;84;28624;-66
2022/05/15 13:25:56;;;;;;;3.35;1.32;;;;;;;21.40;29.50;100676.24;2102255;84;32031;-66
2022/05/15 13:29:01;;;;;;;2.70;1.47;;;;;;;21.40;29.66;100677.61;2101787;84;34285;-67
2022/05/15 13:32:03;;;;;;;;;;;;;;;21.43;29.72;100671.00;2105121;83;29966;-67
2022/05/15 13:35:08;;;;;;;5.72;1.32;;;;;;;21.42;29.60;100668.43;2080718;84;27749;-67
2022/05/15 13:38:30;;;;;;;3.77;1.07;;;;;;;21.42;29.89;100663.86;2108325;84;28747;-67
2022/05/15 13:44:53;;;;;;;3.10;1.17;;;;;;;21.45;29.90;100638.17;2073850;85;33977;-66
2022/05/15 13:48:06;;;;;;;3.22;0.90;;;;;;;21.52;30.14;100644.30;2058492;85;30371;-66
2022/05/15 13:51:08;;;;;;;1.67;0.90;;;;;;;21.58;29.98;100644.75;2076531;85;27700;-67
2022/05/15 13:54:29;;;;;;;5.30;1.05;;;;;;;21.62;29.72;100651.17;2042970;85;29153;-66
2022/05/15 13:57:32;;;;;;;2.50;0.85;;;;;;;;;;2103856;83;30016;-66
2022/05/15 14:00:35;;;;;;;3.40;1.15;;;;;;;21.55;29.38;100636.33;2107299;83;33680;-67
2022/05/15 14:03:37;;;;;;;3.25;1.10;;;;;;;21.54;29.46;100640.93;2069211;86;29403;-66
2022/05/15 14:06:45;;;;;;;2.67;1.25;;;;;;;21.52;29.63;100637.48;2069286;86;27598;-67
2022/05/15 14:09:58;;;;;;;5.17;1.70;;;;;;;21.50;29.57;100642.20;2069368;85;29236;-66
2022/05/15 14:13:03;;;;;;;6.35;2.10;;;;;;;21.43;29.33;100641.02;2093148;85;31018;-67
2022/05/15 14:16:15;;;;;;;3.85;1.65;;;;;;;21.38;29.64;100633.78;2092781;85;33009;-66
2022/05/15 14:19:19;;;;;;;2.52;1.40;;;;;;;21.34;29.62;100629.60;2092918;85;29860;-66
2022/05/15 14:22:22;;;;;;;5.25;1.22;;;;;;;21.31;29.65;100633.48;2071703;85;27684;-66
2022/05/15 14:25:25;;;;;;;4.08;1.45;;;;;;;21.24;29.77;100623.63;2068837;86;28617;-66
2022/05/15 14:28:29;;;;;;;3.80;1.30;;;;;;;21.22;29.47;100626.98;2069077;86;31844;-66
2022/05/15 14:31:40;;;;;;;1.67;1.12;;;;;;;21.17;29.50;100627.05;2072805;85;33800;-66
2022/05/15 14:34:44;;;;;;;3.87;1.02;;;;;;;21.13;29.49;100620.98;2093415;85;30135;-66
2022/05/15 14:37:47;;;;;;;2.55;1.27;;;;;;;21.12;29.67;100618.41;2075865;85;27749;-66
2022/05/15 14:40:51;;;;;;;1.83;1.27;;;;;;;21.08;29.74;100615.11;2084135;84;30032;-66
2022/05/15 14:43:54;;;;;;;2.70;1.02;;;;;;;21.08;29.81;100611.87;2068926;86;31307;-68